createdAt,value
2022-12-12T00:01:26.246Z,18.60
2022-12-12T00:03:55.074Z,18.00
2022-12-12T00:06:25.875Z,18.40
2022-12-12T00:08:54.377Z,18.07
2022-12-12T00:11:23.509Z,18.70
2022-12-12T00:13:52.761Z,19.37
2022-12-12T00:16:21.269Z,19.37
2022-12-12T00:18:49.937Z,18.37
2022-12-12T00:21:20.364Z,19.03
2022-12-12T00:23:50.069Z,19.40
2022-12-12T00:26:21.102Z,19.50
2022-12-12T00:28:49.669Z,19.60
2022-12-12T00:31:18.839Z,18.83
2022-12-12T00:33:50.059Z,19.23
2022-12-12T00:36:20.674Z,19.00
2022-12-12T00:38:50.654Z,18.83
2022-12-12T00:41:19.735Z,18.80
2022-12-12T00:43:48.604Z,19.17
2022-12-12T00:46:18.356Z,19.50
2022-12-12T00:48:46.713Z,19.20
2022-12-12T00:51:18.733Z,19.90
2022-12-12T00:53:51.495Z,18.40
2022-12-12T00:56:22.739Z,19.83
2022-12-12T00:58:51.667Z,19.80
2022-12-12T01:01:22.436Z,19.13
2022-12-12T01:03:50.882Z,20.07
2022-12-12T01:06:19.528Z,19.23
2022-12-12T01:08:47.892Z,18.90
2022-12-12T01:11:17.594Z,19.33
2022-12-12T01:13:48.628Z,19.80
2022-12-12T01:16:16.806Z,19.80
2022-12-12T01:18:45.141Z,19.07
2022-12-12T01:21:15.000Z,19.20
2022-12-12T01:23:43.247Z,19.70
2022-12-12T01:26:14.399Z,19.87
2022-12-12T01:28:43.234Z,19.10
2022-12-12T01:31:13.436Z,19.87
2022-12-12T01:33:45.920Z,19.67
2022-12-12T01:36:16.749Z,19.30
2022-12-12T01:38:46.074Z,19.00
2022-12-12T01:41:15.724Z,19.03
2022-12-12T01:43:43.987Z,19.23
2022-12-12T01:46:34.638Z,19.63
2022-12-12T01:49:07.874Z,19.63
2022-12-12T01:51:36.874Z,20.13
2022-12-12T01:54:09.827Z,19.60
2022-12-12T01:56:39.159Z,19.47
2022-12-12T01:59:09.823Z,19.67
2022-12-12T02:01:40.269Z,19.50
2022-12-12T02:04:10.439Z,19.20
2022-12-12T02:06:39.384Z,19.50
2022-12-12T02:09:13.015Z,19.60
2022-12-12T02:11:46.278Z,18.80
2022-12-12T02:14:17.715Z,18.80
2022-12-12T02:17:20.068Z,19.73
2022-12-12T02:20:19.643Z,19.40
2022-12-12T02:23:28.080Z,19.30
2022-12-12T02:26:17.877Z,19.00
2022-12-12T02:29:25.899Z,19.70
2022-12-12T02:32:00.447Z,18.70
2022-12-12T02:34:37.505Z,18.00
2022-12-12T02:37:12.342Z,18.50
2022-12-12T02:39:48.515Z,19.33
2022-12-12T02:42:27.166Z,19.27
2022-12-12T02:45:01.400Z,18.83
2022-12-12T02:47:33.349Z,19.83
2022-12-12T02:50:07.369Z,20.13
2022-12-12T02:52:35.881Z,18.77
2022-12-12T02:55:04.469Z,19.13
2022-12-12T02:57:33.303Z,19.37
2022-12-12T03:00:05.400Z,18.93
2022-12-12T03:03:16.514Z,19.33
2022-12-12T03:06:10.145Z,18.30
2022-12-12T03:08:52.643Z,18.80
2022-12-12T03:11:31.931Z,18.47
2022-12-12T03:14:04.445Z,18.97
2022-12-12T03:16:40.471Z,18.87
2022-12-12T03:19:16.656Z,18.70
2022-12-12T03:21:50.223Z,18.80
2022-12-12T03:24:24.402Z,18.40
2022-12-12T03:27:00.457Z,18.53
2022-12-12T03:29:32.341Z,19.17
2022-12-12T03:32:06.414Z,18.93
2022-12-12T03:34:39.497Z,19.30
2022-12-12T03:37:13.281Z,18.13
2022-12-12T03:39:47.270Z,18.27
2022-12-12T03:42:20.830Z,18.33
2022-12-12T03:44:54.003Z,18.67
2022-12-12T03:47:27.514Z,18.93
2022-12-12T03:50:03.602Z,18.70
2022-12-12T03:52:34.681Z,18.30
2022-12-12T03:55:09.303Z,19.07
2022-12-12T03:57:42.968Z,19.23
2022-12-12T04:00:15.367Z,19.17
2022-12-12T04:02:51.767Z,18.60
2022-12-12T04:05:25.207Z,19.13
2022-12-12T04:08:00.000Z,19.07
2022-12-12T04:10:51.356Z,18.10
2022-12-12T04:13:32.466Z,18.30
2022-12-12T04:16:05.678Z,18.23
2022-12-12T04:18:41.258Z,18.53
2022-12-12T04:21:38.469Z,18.37
2022-12-12T04:24:16.661Z,19.60
2022-12-12T04:26:50.561Z,18.10
2022-12-12T04:29:28.772Z,19.07
2022-12-12T04:32:04.717Z,19.13
2022-12-12T04:34:42.478Z,19.37
2022-12-12T04:37:16.761Z,19.33
2022-12-12T04:39:48.930Z,19.40
2022-12-12T04:42:22.319Z,19.80
2022-12-12T04:44:53.714Z,20.20
2022-12-12T04:47:22.754Z,19.17
2022-12-12T04:49:53.433Z,19.63
2022-12-12T04:52:25.352Z,20.20
2022-12-12T04:55:00.260Z,19.10
2022-12-12T04:57:32.974Z,19.57
2022-12-12T05:00:01.711Z,19.07
2022-12-12T05:02:35.890Z,20.40
2022-12-12T05:05:09.024Z,19.13
2022-12-12T05:07:41.447Z,19.07
2022-12-12T05:10:14.524Z,19.63
2022-12-12T05:12:45.360Z,18.63
2022-12-12T05:15:14.802Z,19.00
2022-12-12T05:17:46.230Z,20.33
2022-12-12T05:20:14.741Z,20.07
2022-12-12T05:22:44.187Z,20.20
2022-12-12T05:25:14.192Z,20.67
2022-12-12T05:27:42.638Z,21.13
2022-12-12T05:30:11.962Z,20.37
2022-12-12T05:32:40.605Z,19.93
2022-12-12T05:35:10.453Z,19.97
2022-12-12T05:37:38.678Z,19.73
2022-12-12T05:40:10.675Z,21.20
2022-12-12T05:42:38.920Z,19.70
2022-12-12T05:45:10.306Z,20.07
2022-12-12T05:47:38.700Z,19.03
2022-12-12T05:50:08.284Z,19.80
2022-12-12T05:52:36.616Z,19.73
2022-12-12T05:55:05.217Z,19.63
2022-12-12T05:57:35.240Z,19.97
2022-12-12T06:00:04.971Z,20.43
2022-12-12T06:02:33.222Z,20.40
2022-12-12T06:05:01.420Z,21.20
2022-12-12T06:07:29.531Z,20.40
2022-12-12T06:10:00.827Z,20.17
2022-12-12T06:12:28.881Z,21.00
2022-12-12T06:14:58.370Z,22.10
2022-12-12T06:17:31.341Z,24.33
2022-12-12T06:20:01.932Z,20.70
2022-12-12T06:22:30.166Z,21.27
2022-12-12T06:24:58.230Z,20.53
2022-12-12T06:27:26.362Z,21.10
2022-12-12T06:29:54.508Z,21.90
2022-12-12T06:32:24.383Z,21.10
2022-12-12T06:34:52.688Z,20.40
2022-12-12T06:37:20.772Z,20.97
2022-12-12T06:39:49.174Z,22.53
2022-12-12T06:42:17.438Z,20.13
2022-12-12T06:44:47.498Z,19.87
2022-12-12T06:47:15.667Z,20.50
2022-12-12T06:49:45.233Z,21.80
2022-12-12T06:52:13.742Z,20.00
2022-12-12T06:54:41.885Z,19.40
2022-12-12T06:57:12.926Z,20.47
2022-12-12T06:59:41.326Z,20.30
2022-12-12T07:02:12.143Z,19.10
2022-12-12T07:04:40.225Z,18.97
2022-12-12T07:07:09.754Z,18.90
2022-12-12T07:09:38.249Z,17.43
2022-12-12T07:12:06.687Z,19.87
2022-12-12T07:14:34.840Z,18.00
2022-12-12T07:17:02.969Z,19.70
2022-12-12T07:19:31.033Z,18.67
2022-12-12T07:22:04.189Z,18.47
2022-12-12T07:24:37.350Z,18.27
2022-12-12T07:27:07.112Z,20.10
2022-12-12T07:29:35.592Z,19.70
2022-12-12T07:32:04.250Z,17.67
2022-12-12T07:34:32.532Z,20.07
2022-12-12T07:37:03.077Z,28.03
2022-12-12T07:39:31.674Z,18.77
2022-12-12T07:42:01.643Z,17.87
2022-12-12T07:44:30.163Z,21.07
2022-12-12T07:46:59.068Z,19.07
2022-12-12T07:49:27.355Z,21.03
2022-12-12T07:51:55.613Z,20.27
2022-12-12T07:54:23.806Z,22.17
2022-12-12T07:56:52.978Z,22.37
2022-12-12T07:59:22.697Z,20.70
2022-12-12T08:01:51.035Z,18.30
2022-12-12T08:04:22.330Z,18.17
2022-12-12T08:06:55.661Z,17.50
2022-12-12T08:09:31.640Z,16.10
2022-12-12T08:12:00.901Z,17.77
2022-12-12T08:14:30.840Z,14.97
2022-12-12T08:16:59.186Z,13.90
2022-12-12T08:19:27.477Z,13.87
2022-12-12T08:21:58.709Z,12.87
2022-12-12T08:24:28.498Z,12.27
2022-12-12T08:26:56.866Z,11.00
2022-12-12T08:29:25.380Z,12.53
2022-12-12T08:31:55.118Z,13.67
2022-12-12T08:34:23.932Z,13.60
2022-12-12T08:36:52.553Z,13.03
2022-12-12T08:39:20.967Z,13.43
2022-12-12T08:41:51.407Z,13.87
2022-12-12T08:44:22.196Z,15.43
2022-12-12T08:46:51.406Z,15.27
2022-12-12T08:49:21.329Z,15.33
2022-12-12T08:51:51.424Z,15.37
2022-12-12T08:54:19.818Z,14.60
2022-12-12T08:56:48.571Z,25.40
2022-12-12T08:59:17.032Z,50.50
2022-12-12T09:01:45.304Z,27.13
2022-12-12T09:04:13.610Z,13.90
2022-12-12T09:06:43.291Z,15.53
2022-12-12T09:09:11.464Z,15.50
2022-12-12T09:11:40.100Z,15.07
2022-12-12T09:14:08.309Z,16.37
2022-12-12T09:16:36.632Z,15.53
2022-12-12T09:19:05.028Z,15.80
2022-12-12T09:21:33.383Z,15.33
2022-12-12T09:24:03.535Z,17.03
2022-12-12T09:26:32.256Z,17.47
2022-12-12T09:29:00.486Z,15.00
2022-12-12T09:31:28.689Z,14.47
2022-12-12T09:33:57.115Z,14.47
2022-12-12T09:36:26.086Z,16.33
2022-12-12T09:38:54.307Z,13.90
2022-12-12T09:41:27.108Z,13.77
2022-12-12T09:43:59.240Z,14.63
2022-12-12T09:46:36.314Z,13.37
2022-12-12T09:49:18.285Z,13.10
2022-12-12T09:51:52.189Z,13.10
2022-12-12T09:54:22.753Z,12.67
2022-12-12T09:57:06.198Z,12.73
2022-12-12T09:59:41.851Z,12.87
2022-12-12T10:02:31.047Z,11.33
2022-12-12T10:05:03.187Z,10.40
2022-12-12T10:07:42.678Z,10.60
2022-12-12T10:10:18.537Z,11.00
2022-12-12T10:12:49.007Z,17.63
2022-12-12T10:15:28.335Z,18.38
2022-12-12T10:18:05.731Z,18.13
2022-12-12T10:20:38.183Z,10.80
2022-12-12T10:23:15.986Z,10.83
2022-12-12T10:25:50.768Z,11.60
2022-12-12T10:28:22.789Z,10.77
2022-12-12T10:31:06.924Z,10.67
2022-12-12T10:33:47.495Z,9.67
2022-12-12T10:36:26.892Z,11.10
2022-12-12T10:39:09.655Z,10.60
2022-12-12T10:41:45.415Z,12.43
2022-12-12T10:44:26.801Z,10.70
2022-12-12T10:47:01.745Z,9.63
2022-12-12T10:49:35.197Z,9.90
2022-12-12T10:52:07.201Z,10.03
2022-12-12T10:54:50.061Z,10.60
2022-12-12T10:57:22.395Z,10.00
2022-12-12T10:59:57.587Z,10.37
2022-12-12T11:02:36.039Z,10.20
2022-12-12T11:05:11.084Z,11.47
2022-12-12T11:07:41.718Z,9.93
2022-12-12T11:10:26.753Z,10.18
2022-12-12T11:12:59.777Z,10.20
2022-12-12T11:15:35.055Z,10.10
2022-12-12T11:18:06.322Z,9.73
2022-12-12T11:20:34.940Z,10.20
2022-12-12T11:23:03.292Z,10.57
2022-12-12T11:25:32.842Z,10.30
2022-12-12T11:28:06.856Z,10.57
2022-12-12T11:30:42.713Z,10.57
2022-12-12T11:33:19.899Z,10.17
2022-12-12T11:35:53.447Z,11.10
2022-12-12T11:38:25.698Z,9.97
2022-12-12T11:41:02.244Z,10.80
2022-12-12T11:43:31.801Z,10.80
2022-12-12T11:46:08.720Z,10.70
2022-12-12T11:48:56.823Z,10.57
2022-12-12T11:51:36.857Z,11.17
2022-12-12T11:54:11.518Z,11.53
2022-12-12T11:56:48.500Z,11.00
2022-12-12T11:59:43.174Z,10.43
2022-12-12T12:02:45.524Z,10.93
2022-12-12T12:05:25.661Z,10.33
2022-12-12T12:08:08.439Z,11.80
2022-12-12T12:10:47.479Z,12.43
2022-12-12T12:13:33.834Z,13.10
2022-12-12T12:16:10.965Z,13.70
2022-12-12T12:18:55.591Z,41.20
2022-12-12T12:21:35.399Z,15.23
2022-12-12T12:24:38.405Z,12.63
2022-12-12T12:27:14.627Z,13.10
2022-12-12T12:30:01.195Z,11.97
2022-12-12T12:32:44.607Z,11.33
2022-12-12T12:35:29.505Z,12.60
2022-12-12T12:38:14.027Z,11.27
2022-12-12T12:41:10.280Z,12.53
2022-12-12T12:43:52.075Z,12.07
2022-12-12T12:46:31.216Z,11.43
2022-12-12T12:49:04.344Z,12.20
2022-12-12T12:51:37.890Z,12.00
2022-12-12T12:54:08.664Z,10.90
2022-12-12T12:56:44.004Z,11.43
2022-12-12T12:59:17.553Z,11.00
2022-12-12T13:01:48.424Z,10.87
2022-12-12T13:04:22.443Z,10.73
2022-12-12T13:06:58.715Z,11.57
2022-12-12T13:09:35.618Z,10.73
2022-12-12T13:12:22.344Z,10.30
2022-12-12T13:14:55.795Z,10.73
2022-12-12T13:17:30.223Z,11.20
2022-12-12T13:19:59.462Z,11.40
2022-12-12T13:22:36.707Z,10.53
2022-12-12T13:25:12.865Z,10.63
2022-12-12T13:27:46.385Z,11.40
2022-12-12T13:30:23.622Z,10.50
2022-12-12T13:33:18.809Z,10.87
2022-12-12T13:35:51.212Z,9.53
2022-12-12T13:38:25.565Z,10.53
2022-12-12T13:40:58.782Z,9.20
2022-12-12T13:43:31.829Z,9.60
2022-12-12T13:46:00.316Z,9.50
2022-12-12T13:48:46.793Z,8.27
2022-12-12T13:51:47.623Z,7.80
2022-12-12T13:54:49.401Z,8.60
2022-12-12T13:57:25.365Z,9.13
2022-12-12T14:00:21.592Z,9.40
2022-12-12T14:03:05.951Z,7.50
2022-12-12T14:05:39.913Z,49.33
2022-12-12T14:08:21.555Z,11.87
2022-12-12T14:10:58.944Z,12.23
2022-12-12T14:13:37.009Z,20.30
2022-12-12T14:16:08.728Z,10.30
2022-12-12T14:18:40.547Z,14.50
2022-12-12T14:21:13.903Z,8.87
2022-12-12T14:23:44.927Z,9.33
2022-12-12T14:26:52.660Z,9.07
2022-12-12T14:29:31.414Z,10.17
2022-12-12T14:32:18.501Z,9.97
2022-12-12T14:34:55.544Z,10.20
2022-12-12T14:37:39.786Z,10.10
2022-12-12T14:40:19.887Z,10.77
2022-12-12T14:43:18.964Z,10.10
2022-12-12T14:46:00.926Z,11.37
2022-12-12T14:51:28.969Z,11.77
2022-12-12T14:54:00.796Z,11.30
2022-12-12T14:56:32.343Z,11.80
2022-12-12T14:59:04.272Z,12.20
2022-12-12T15:01:35.383Z,12.73
2022-12-12T15:04:07.692Z,13.30
2022-12-12T15:06:40.902Z,15.23
2022-12-12T15:09:25.339Z,12.83
2022-12-12T15:11:56.082Z,15.37
2022-12-12T15:15:06.473Z,17.70
2022-12-12T15:17:39.876Z,16.53
2022-12-12T15:20:15.793Z,24.87
2022-12-12T15:22:54.160Z,18.80
2022-12-12T15:25:25.752Z,17.43
2022-12-12T15:27:56.478Z,17.30
2022-12-12T15:30:53.827Z,16.00
2022-12-12T15:33:26.794Z,14.77
2022-12-12T15:36:01.879Z,17.73
2022-12-12T15:38:33.372Z,15.53
2022-12-12T15:41:12.804Z,31.10
2022-12-12T15:43:43.378Z,15.90
2022-12-12T15:46:16.384Z,16.10
2022-12-12T15:48:45.640Z,16.87
2022-12-12T15:51:19.730Z,17.90
2022-12-12T15:53:55.387Z,16.43
2022-12-12T15:56:26.278Z,17.10
2022-12-12T15:58:58.648Z,17.13
2022-12-12T16:01:31.344Z,16.83
2022-12-12T16:04:01.297Z,17.50
2022-12-12T16:09:25.649Z,19.27
2022-12-12T16:11:55.211Z,17.77
2022-12-12T16:14:40.202Z,20.17
2022-12-12T16:17:15.244Z,16.50
2022-12-12T16:19:51.619Z,15.93
2022-12-12T16:22:33.925Z,16.43
2022-12-12T16:25:16.869Z,17.17
2022-12-12T16:27:48.758Z,16.60
2022-12-12T16:30:18.069Z,17.47
2022-12-12T16:32:50.698Z,18.93
2022-12-12T16:35:22.215Z,17.97
2022-12-12T16:37:54.592Z,18.30
2022-12-12T16:40:23.796Z,19.57
2022-12-12T16:43:10.829Z,18.10
2022-12-12T16:45:39.854Z,18.00
2022-12-12T16:48:16.051Z,18.00
2022-12-12T16:50:47.703Z,18.43
2022-12-12T16:53:16.564Z,17.77
2022-12-12T16:55:47.339Z,17.90
2022-12-12T16:58:16.765Z,19.00
2022-12-12T17:00:49.273Z,19.80
2022-12-12T17:03:19.404Z,19.77
2022-12-12T17:06:18.332Z,19.60
2022-12-12T17:08:48.096Z,19.33
2022-12-12T17:11:16.763Z,20.33
2022-12-12T17:13:49.345Z,22.07
2022-12-12T17:16:22.745Z,21.97
2022-12-12T17:18:56.724Z,21.57
2022-12-12T17:21:25.711Z,20.47
2022-12-12T17:23:54.499Z,20.63
2022-12-12T17:26:23.770Z,20.40
2022-12-12T17:28:52.306Z,21.33
2022-12-12T17:31:21.016Z,25.83
2022-12-12T17:33:51.450Z,20.47
2022-12-12T17:36:21.725Z,21.83
2022-12-12T17:39:00.861Z,22.23
2022-12-12T17:41:30.444Z,22.03
2022-12-12T17:43:59.673Z,19.93
2022-12-12T17:46:28.909Z,20.43
2022-12-12T17:49:02.160Z,20.30
2022-12-12T17:51:32.694Z,22.60
2022-12-12T17:54:01.420Z,21.87
2022-12-12T17:56:30.628Z,21.80
2022-12-12T17:58:59.544Z,22.27
2022-12-12T18:01:31.770Z,24.73
2022-12-12T18:04:03.407Z,24.27
2022-12-12T18:06:38.261Z,22.23
2022-12-12T18:09:09.170Z,21.43
2022-12-12T18:11:38.742Z,21.87
2022-12-12T18:14:09.116Z,21.07
2022-12-12T18:16:37.699Z,19.13
2022-12-12T18:19:06.248Z,20.00
2022-12-12T18:21:59.582Z,19.53
2022-12-12T18:24:34.354Z,19.30
2022-12-12T18:27:04.081Z,19.10
2022-12-12T18:29:32.906Z,18.27
2022-12-12T18:32:01.288Z,18.20
2022-12-12T18:34:29.513Z,19.57
2022-12-12T18:37:02.331Z,20.40
2022-12-12T18:39:30.491Z,19.90
2022-12-12T18:41:58.975Z,24.00
2022-12-12T18:44:27.092Z,25.93
2022-12-12T18:46:55.744Z,27.80
2022-12-12T18:49:24.476Z,27.27
2022-12-12T18:51:53.621Z,27.07
2022-12-12T18:54:23.343Z,25.70
2022-12-12T18:56:51.906Z,22.90
2022-12-12T18:59:19.969Z,23.80
2022-12-12T19:01:53.500Z,26.13
2022-12-12T19:04:23.652Z,22.93
2022-12-12T19:06:52.169Z,21.87
2022-12-12T19:09:22.194Z,22.20
2022-12-12T19:11:50.649Z,21.07
2022-12-12T19:14:19.239Z,21.53
2022-12-12T19:16:48.050Z,21.70
2022-12-12T19:19:16.800Z,20.40
2022-12-12T19:21:46.419Z,20.37
2022-12-12T19:24:14.837Z,21.37
2022-12-12T19:26:46.608Z,20.90
2022-12-12T19:29:17.585Z,21.20
2022-12-12T19:32:12.620Z,22.17
2022-12-12T19:34:47.486Z,21.77
2022-12-12T19:37:22.850Z,24.33
2022-12-12T19:39:53.623Z,25.37
2022-12-12T19:42:24.517Z,24.87
2022-12-12T19:44:56.203Z,25.17
2022-12-12T19:47:29.159Z,27.43
2022-12-12T19:49:57.361Z,27.80
2022-12-12T19:52:25.483Z,28.73
2022-12-12T19:54:54.247Z,29.17
2022-12-12T19:57:26.400Z,29.37
2022-12-12T19:59:54.741Z,29.47
2022-12-12T20:02:23.014Z,30.27
2022-12-12T20:04:51.433Z,24.43
2022-12-12T20:07:19.576Z,27.07
2022-12-12T20:09:50.643Z,26.37
2022-12-12T20:12:18.769Z,24.90
2022-12-12T20:14:48.559Z,24.77
2022-12-12T20:17:16.970Z,23.50
2022-12-12T20:19:47.311Z,23.50
2022-12-12T20:22:16.291Z,22.57
2022-12-12T20:24:45.229Z,22.73
2022-12-12T20:27:15.315Z,22.10
2022-12-12T20:29:44.441Z,23.53
2022-12-12T20:32:14.607Z,24.47
2022-12-12T20:34:43.190Z,23.17
2022-12-12T20:37:14.133Z,23.63
2022-12-12T20:39:46.470Z,22.77
2022-12-12T20:42:14.531Z,23.27
2022-12-12T20:44:42.582Z,22.43
2022-12-12T20:47:14.508Z,23.07
2022-12-12T20:49:44.471Z,23.00
2022-12-12T20:52:12.614Z,23.83
2022-12-12T20:54:40.723Z,23.17
2022-12-12T20:57:08.787Z,22.60
2022-12-12T20:59:37.713Z,23.80
2022-12-12T21:02:06.561Z,22.23
2022-12-12T21:04:35.937Z,21.47
2022-12-12T21:07:06.068Z,21.20
2022-12-12T21:09:34.229Z,22.67
2022-12-12T21:12:02.814Z,23.07
2022-12-12T21:14:33.044Z,23.03
2022-12-12T21:17:01.108Z,22.43
2022-12-12T21:19:29.217Z,24.83
2022-12-12T21:21:57.294Z,24.67
2022-12-12T21:24:28.126Z,23.53
2022-12-12T21:26:56.393Z,23.00
2022-12-12T21:29:24.446Z,22.97
2022-12-12T21:31:52.961Z,23.73
2022-12-12T21:34:22.635Z,22.03
2022-12-12T21:36:55.554Z,22.53
2022-12-12T21:39:29.489Z,21.93
2022-12-12T21:41:59.047Z,22.83
2022-12-12T21:44:27.464Z,22.03
2022-12-12T21:46:55.597Z,22.60
2022-12-12T21:49:30.839Z,22.43
2022-12-12T21:52:01.356Z,21.67
2022-12-12T21:54:30.477Z,21.83
2022-12-12T21:57:01.995Z,21.90
2022-12-12T21:59:30.990Z,22.07
2022-12-12T22:02:01.159Z,20.93
2022-12-12T22:04:30.438Z,22.27
2022-12-12T22:06:58.710Z,22.60
2022-12-12T22:09:27.975Z,22.57
2022-12-12T22:12:03.333Z,22.77
2022-12-12T22:14:34.913Z,23.37
2022-12-12T22:17:03.630Z,22.47
2022-12-12T22:19:34.718Z,24.47
2022-12-12T22:22:02.953Z,23.27
2022-12-12T22:24:31.078Z,23.30
2022-12-12T22:26:59.195Z,22.50
2022-12-12T22:29:27.489Z,21.47
2022-12-12T22:32:03.066Z,22.70
2022-12-12T22:34:31.384Z,23.43
2022-12-12T22:36:59.518Z,22.53
2022-12-12T22:39:29.277Z,22.80
2022-12-12T22:41:58.119Z,23.63
2022-12-12T22:44:27.511Z,22.63
2022-12-12T22:46:57.346Z,22.30
2022-12-12T22:49:27.734Z,23.40
2022-12-12T22:51:56.860Z,23.13
2022-12-12T22:54:25.779Z,22.10
2022-12-12T22:56:54.868Z,23.30
2022-12-12T22:59:22.938Z,23.00
2022-12-12T23:01:50.998Z,22.33
2022-12-12T23:04:20.605Z,22.77
2022-12-12T23:06:48.729Z,23.37
2022-12-12T23:09:23.128Z,23.20
2022-12-12T23:11:51.170Z,23.47
2022-12-12T23:14:22.797Z,23.47
2022-12-12T23:16:51.638Z,23.10
2022-12-12T23:19:26.073Z,22.83
2022-12-12T23:21:54.311Z,22.90
2022-12-12T23:24:22.428Z,22.50
2022-12-12T23:26:52.422Z,21.87
2022-12-12T23:29:21.304Z,22.17
2022-12-12T23:31:50.057Z,21.40
2022-12-12T23:34:23.473Z,21.03
2022-12-12T23:36:52.347Z,20.87
2022-12-12T23:39:20.706Z,21.70
2022-12-12T23:41:49.340Z,21.67
2022-12-12T23:44:19.952Z,22.23
2022-12-12T23:46:48.520Z,20.60
2022-12-12T23:49:18.998Z,21.07
2022-12-12T23:51:49.955Z,20.73
2022-12-12T23:54:20.158Z,20.60
2022-12-12T23:56:49.120Z,19.67
2022-12-12T23:59:18.603Z,19.87
